sensor_id;sensor_type;location;lat;lon;timestamp;temperature;humidity
19279;DHT22;9773;47.062;15.446;2024-03-08T00:01:44;4.70;99.90
19279;DHT22;9773;47.062;15.446;2024-03-08T00:04:10;4.70;99.90
19279;DHT22;9773;47.062;15.446;2024-03-08T00:06:36;4.70;99.90
19279;DHT22;9773;47.062;15.446;2024-03-08T00:09:02;4.60;99.90
19279;DHT22;9773;47.062;15.446;2024-03-08T00:11:27;4.60;99.90
19279;DHT22;9773;47.062;15.446;2024-03-08T00:13:53;4.50;99.90
19279;DHT22;9773;47.062;15.446;2024-03-08T00:16:21;4.50;99.90
19279;DHT22;9773;47.062;15.446;2024-03-08T00:18:49;4.50;99.90
19279;DHT22;9773;47.062;15.446;2024-03-08T00:21:15;4.50;99.90
19279;DHT22;9773;47.062;15.446;2024-03-08T00:23:41;4.30;99.90
19279;DHT22;9773;47.062;15.446;2024-03-08T00:26:07;4.30;99.90
19279;DHT22;9773;47.062;15.446;2024-03-08T00:28:33;4.20;99.90
19279;DHT22;9773;47.062;15.446;2024-03-08T00:31:00;4.20;99.90
19279;DHT22;9773;47.062;15.446;2024-03-08T00:33:26;4.30;99.90
19279;DHT22;9773;47.062;15.446;2024-03-08T00:35:53;4.30;99.90
19279;DHT22;9773;47.062;15.446;2024-03-08T00:38:19;4.40;99.90
19279;DHT22;9773;47.062;15.446;2024-03-08T00:40:46;4.30;99.90
19279;DHT22;9773;47.062;15.446;2024-03-08T00:43:12;4.30;99.90
19279;DHT22;9773;47.062;15.446;2024-03-08T00:45:38;4.40;99.90
19279;DHT22;9773;47.062;15.446;2024-03-08T00:48:07;4.30;99.90
19279;DHT22;9773;47.062;15.446;2024-03-08T00:50:33;4.30;99.90
19279;DHT22;9773;47.062;15.446;2024-03-08T00:52:59;4.20;99.90
19279;DHT22;9773;47.062;15.446;2024-03-08T00:55:26;4.00;99.90
19279;DHT22;9773;47.062;15.446;2024-03-08T00:57:52;4.00;99.90
19279;DHT22;9773;47.062;15.446;2024-03-08T01:00:19;4.00;99.90
19279;DHT22;9773;47.062;15.446;2024-03-08T01:02:45;4.00;99.90
19279;DHT22;9773;47.062;15.446;2024-03-08T01:05:11;4.00;99.90
19279;DHT22;9773;47.062;15.446;2024-03-08T01:07:37;4.00;99.90
19279;DHT22;9773;47.062;15.446;2024-03-08T01:10:04;4.00;99.90
19279;DHT22;9773;47.062;15.446;2024-03-08T01:12:30;4.00;99.90
19279;DHT22;9773;47.062;15.446;2024-03-08T01:14:56;4.00;99.90
19279;DHT22;9773;47.062;15.446;2024-03-08T01:17:23;4.00;99.90
19279;DHT22;9773;47.062;15.446;2024-03-08T01:19:49;4.00;99.90
19279;DHT22;9773;47.062;15.446;2024-03-08T01:22:15;4.10;99.90
19279;DHT22;9773;47.062;15.446;2024-03-08T01:24:41;4.00;99.90
19279;DHT22;9773;47.062;15.446;2024-03-08T01:27:06;4.00;99.90
19279;DHT22;9773;47.062;15.446;2024-03-08T01:29:34;4.10;99.90
19279;DHT22;9773;47.062;15.446;2024-03-08T01:32:00;4.00;99.90
19279;DHT22;9773;47.062;15.446;2024-03-08T01:34:27;4.10;99.90
19279;DHT22;9773;47.062;15.446;2024-03-08T01:36:54;4.00;99.90
19279;DHT22;9773;47.062;15.446;2024-03-08T01:39:21;4.00;99.90
19279;DHT22;9773;47.062;15.446;2024-03-08T01:41:48;4.00;99.90
19279;DHT22;9773;47.062;15.446;2024-03-08T01:44:13;4.00;99.90
19279;DHT22;9773;47.062;15.446;2024-03-08T01:46:44;4.10;99.90
19279;DHT22;9773;47.062;15.446;2024-03-08T01:49:12;4.00;99.90
19279;DHT22;9773;47.062;15.446;2024-03-08T01:51:39;4.00;99.90
19279;DHT22;9773;47.062;15.446;2024-03-08T01:54:07;4.00;99.90
19279;DHT22;9773;47.062;15.446;2024-03-08T01:56:35;4.00;99.90
19279;DHT22;9773;47.062;15.446;2024-03-08T01:59:03;4.00;99.90
19279;DHT22;9773;47.062;15.446;2024-03-08T02:01:30;3.90;99.90
19279;DHT22;9773;47.062;15.446;2024-03-08T02:03:56;3.80;99.90
19279;DHT22;9773;47.062;15.446;2024-03-08T02:06:22;3.80;99.90
19279;DHT22;9773;47.062;15.446;2024-03-08T02:08:48;3.80;99.90
19279;DHT22;9773;47.062;15.446;2024-03-08T02:11:14;3.80;99.90
19279;DHT22;9773;47.062;15.446;2024-03-08T02:13:41;3.90;99.90
19279;DHT22;9773;47.062;15.446;2024-03-08T02:16:07;3.90;99.90
19279;DHT22;9773;47.062;15.446;2024-03-08T02:18:33;3.90;99.90
19279;DHT22;9773;47.062;15.446;2024-03-08T02:21:06;3.80;99.90
19279;DHT22;9773;47.062;15.446;2024-03-08T02:23:33;3.80;99.90
19279;DHT22;9773;47.062;15.446;2024-03-08T02:26:00;3.70;99.90
19279;DHT22;9773;47.062;15.446;2024-03-08T02:28:26;3.80;99.90
19279;DHT22;9773;47.062;15.446;2024-03-08T02:30:52;3.80;99.90
19279;DHT22;9773;47.062;15.446;2024-03-08T02:33:24;3.70;99.90
19279;DHT22;9773;47.062;15.446;2024-03-08T02:35:50;3.80;99.90
19279;DHT22;9773;47.062;15.446;2024-03-08T02:38:17;3.90;99.90
19279;DHT22;9773;47.062;15.446;2024-03-08T02:40:49;3.90;99.90
19279;DHT22;9773;47.062;15.446;2024-03-08T02:43:16;4.00;99.90
19279;DHT22;9773;47.062;15.446;2024-03-08T02:45:43;4.00;99.90
19279;DHT22;9773;47.062;15.446;2024-03-08T02:48:11;4.00;99.90
19279;DHT22;9773;47.062;15.446;2024-03-08T02:50:37;3.90;99.90
19279;DHT22;9773;47.062;15.446;2024-03-08T02:53:05;3.90;99.90
19279;DHT22;9773;47.062;15.446;2024-03-08T02:55:31;3.90;99.90
19279;DHT22;9773;47.062;15.446;2024-03-08T02:57:59;3.90;99.90
19279;DHT22;9773;47.062;15.446;2024-03-08T03:00:24;3.80;99.90
19279;DHT22;9773;47.062;15.446;2024-03-08T03:02:50;3.70;99.90
19279;DHT22;9773;47.062;15.446;2024-03-08T03:05:23;3.80;99.90
19279;DHT22;9773;47.062;15.446;2024-03-08T03:07:49;3.70;99.90
19279;DHT22;9773;47.062;15.446;2024-03-08T03:10:19;3.70;99.90
19279;DHT22;9773;47.062;15.446;2024-03-08T03:12:48;3.80;99.90
19279;DHT22;9773;47.062;15.446;2024-03-08T03:15:17;3.80;99.90
19279;DHT22;9773;47.062;15.446;2024-03-08T03:17:49;3.70;99.90
19279;DHT22;9773;47.062;15.446;2024-03-08T03:20:19;3.80;99.90
19279;DHT22;9773;47.062;15.446;2024-03-08T03:23:06;3.90;99.90
19279;DHT22;9773;47.062;15.446;2024-03-08T03:25:34;3.90;99.90
19279;DHT22;9773;47.062;15.446;2024-03-08T03:28:01;3.90;99.90
19279;DHT22;9773;47.062;15.446;2024-03-08T03:30:27;3.90;99.90
19279;DHT22;9773;47.062;15.446;2024-03-08T03:33:00;3.90;99.90
19279;DHT22;9773;47.062;15.446;2024-03-08T03:35:27;3.90;99.90
19279;DHT22;9773;47.062;15.446;2024-03-08T03:37:54;4.00;99.90
19279;DHT22;9773;47.062;15.446;2024-03-08T03:41:04;4.00;99.90
19279;DHT22;9773;47.062;15.446;2024-03-08T03:43:39;4.10;99.90
19279;DHT22;9773;47.062;15.446;2024-03-08T03:46:08;4.10;99.90
19279;DHT22;9773;47.062;15.446;2024-03-08T03:48:43;4.20;99.90
19279;DHT22;9773;47.062;15.446;2024-03-08T03:51:15;4.20;99.90
19279;DHT22;9773;47.062;15.446;2024-03-08T03:54:17;4.20;99.90
19279;DHT22;9773;47.062;15.446;2024-03-08T03:56:47;4.10;99.90
19279;DHT22;9773;47.062;15.446;2024-03-08T03:59:26;4.10;99.90
19279;DHT22;9773;47.062;15.446;2024-03-08T04:01:56;4.10;99.90
19279;DHT22;9773;47.062;15.446;2024-03-08T04:04:25;4.10;99.90
19279;DHT22;9773;47.062;15.446;2024-03-08T04:07:11;4.20;99.90
19279;DHT22;9773;47.062;15.446;2024-03-08T04:09:47;4.00;99.90
19279;DHT22;9773;47.062;15.446;2024-03-08T04:12:49;3.70;99.90
19279;DHT22;9773;47.062;15.446;2024-03-08T04:15:25;3.50;99.90
19279;DHT22;9773;47.062;15.446;2024-03-08T04:17:57;3.40;99.90
19279;DHT22;9773;47.062;15.446;2024-03-08T04:20:28;3.50;99.90
19279;DHT22;9773;47.062;15.446;2024-03-08T04:23:09;3.40;99.90
19279;DHT22;9773;47.062;15.446;2024-03-08T04:25:49;3.40;99.90
19279;DHT22;9773;47.062;15.446;2024-03-08T04:28:18;3.40;99.90
19279;DHT22;9773;47.062;15.446;2024-03-08T04:30:48;3.60;99.90
19279;DHT22;9773;47.062;15.446;2024-03-08T04:33:31;3.60;99.90
19279;DHT22;9773;47.062;15.446;2024-03-08T04:36:00;3.80;99.90
19279;DHT22;9773;47.062;15.446;2024-03-08T04:38:31;3.80;99.90
19279;DHT22;9773;47.062;15.446;2024-03-08T04:41:07;3.80;99.90
19279;DHT22;9773;47.062;15.446;2024-03-08T04:43:34;3.90;99.90
19279;DHT22;9773;47.062;15.446;2024-03-08T04:46:00;3.90;99.90
19279;DHT22;9773;47.062;15.446;2024-03-08T04:48:29;3.90;99.90
19279;DHT22;9773;47.062;15.446;2024-03-08T04:50:55;4.00;99.90
19279;DHT22;9773;47.062;15.446;2024-03-08T04:53:21;4.00;99.90
19279;DHT22;9773;47.062;15.446;2024-03-08T04:55:47;4.00;99.90
19279;DHT22;9773;47.062;15.446;2024-03-08T04:58:13;4.00;99.90
19279;DHT22;9773;47.062;15.446;2024-03-08T05:00:39;4.00;99.90
19279;DHT22;9773;47.062;15.446;2024-03-08T05:03:05;4.10;99.90
19279;DHT22;9773;47.062;15.446;2024-03-08T05:05:31;4.20;99.90
19279;DHT22;9773;47.062;15.446;2024-03-08T05:07:57;4.20;99.90
19279;DHT22;9773;47.062;15.446;2024-03-08T05:10:23;4.20;99.90
19279;DHT22;9773;47.062;15.446;2024-03-08T05:12:49;4.40;99.90
19279;DHT22;9773;47.062;15.446;2024-03-08T05:15:15;4.10;99.90
19279;DHT22;9773;47.062;15.446;2024-03-08T05:17:40;4.20;99.90
19279;DHT22;9773;47.062;15.446;2024-03-08T05:20:07;4.20;99.90
19279;DHT22;9773;47.062;15.446;2024-03-08T05:22:34;4.20;99.90
19279;DHT22;9773;47.062;15.446;2024-03-08T05:24:59;4.20;99.90
19279;DHT22;9773;47.062;15.446;2024-03-08T05:27:26;4.20;99.90
19279;DHT22;9773;47.062;15.446;2024-03-08T05:29:54;4.20;99.90
19279;DHT22;9773;47.062;15.446;2024-03-08T05:32:20;4.30;99.90
19279;DHT22;9773;47.062;15.446;2024-03-08T05:34:45;4.30;99.90
19279;DHT22;9773;47.062;15.446;2024-03-08T05:37:12;4.30;99.90
19279;DHT22;9773;47.062;15.446;2024-03-08T05:39:38;4.30;99.90
19279;DHT22;9773;47.062;15.446;2024-03-08T05:42:04;4.80;99.90
19279;DHT22;9773;47.062;15.446;2024-03-08T05:44:30;4.30;99.90
19279;DHT22;9773;47.062;15.446;2024-03-08T05:46:56;4.30;99.90
19279;DHT22;9773;47.062;15.446;2024-03-08T05:49:22;4.40;99.90
19279;DHT22;9773;47.062;15.446;2024-03-08T05:51:48;4.40;99.90
19279;DHT22;9773;47.062;15.446;2024-03-08T05:54:13;4.40;99.90
19279;DHT22;9773;47.062;15.446;2024-03-08T05:56:40;4.40;99.90
19279;DHT22;9773;47.062;15.446;2024-03-08T05:59:10;4.40;99.90
19279;DHT22;9773;47.062;15.446;2024-03-08T06:01:36;4.40;99.90
19279;DHT22;9773;47.062;15.446;2024-03-08T06:04:03;4.40;99.90
19279;DHT22;9773;47.062;15.446;2024-03-08T06:06:29;4.40;99.90
19279;DHT22;9773;47.062;15.446;2024-03-08T06:08:55;4.50;99.90
19279;DHT22;9773;47.062;15.446;2024-03-08T06:11:22;4.50;99.90
19279;DHT22;9773;47.062;15.446;2024-03-08T06:13:48;4.60;99.90
19279;DHT22;9773;47.062;15.446;2024-03-08T06:16:15;4.60;99.90
19279;DHT22;9773;47.062;15.446;2024-03-08T06:18:41;4.50;99.90
19279;DHT22;9773;47.062;15.446;2024-03-08T06:21:07;4.50;99.90
19279;DHT22;9773;47.062;15.446;2024-03-08T06:23:38;4.60;99.90
19279;DHT22;9773;47.062;15.446;2024-03-08T06:26:04;4.60;99.90
19279;DHT22;9773;47.062;15.446;2024-03-08T06:28:30;4.50;99.90
19279;DHT22;9773;47.062;15.446;2024-03-08T06:30:58;4.40;99.90
19279;DHT22;9773;47.062;15.446;2024-03-08T06:33:24;4.30;99.90
19279;DHT22;9773;47.062;15.446;2024-03-08T06:35:52;4.30;99.90
19279;DHT22;9773;47.062;15.446;2024-03-08T06:38:20;4.30;99.90
19279;DHT22;9773;47.062;15.446;2024-03-08T06:40:46;4.30;99.90
19279;DHT22;9773;47.062;15.446;2024-03-08T06:43:14;4.30;99.90
19279;DHT22;9773;47.062;15.446;2024-03-08T06:45:42;4.50;99.90
19279;DHT22;9773;47.062;15.446;2024-03-08T06:48:17;4.50;99.90
19279;DHT22;9773;47.062;15.446;2024-03-08T06:50:44;4.50;99.90
19279;DHT22;9773;47.062;15.446;2024-03-08T06:53:11;4.60;99.90
19279;DHT22;9773;47.062;15.446;2024-03-08T06:55:37;4.60;99.90
19279;DHT22;9773;47.062;15.446;2024-03-08T06:58:04;4.80;99.90
19279;DHT22;9773;47.062;15.446;2024-03-08T07:00:30;4.70;99.90
19279;DHT22;9773;47.062;15.446;2024-03-08T07:02:58;4.80;99.90
19279;DHT22;9773;47.062;15.446;2024-03-08T07:05:28;4.80;99.90
19279;DHT22;9773;47.062;15.446;2024-03-08T07:07:54;4.90;99.90
19279;DHT22;9773;47.062;15.446;2024-03-08T07:10:23;4.70;99.90
19279;DHT22;9773;47.062;15.446;2024-03-08T07:12:52;4.70;99.90
19279;DHT22;9773;47.062;15.446;2024-03-08T07:15:21;4.80;99.90
19279;DHT22;9773;47.062;15.446;2024-03-08T07:17:49;4.90;99.90
19279;DHT22;9773;47.062;15.446;2024-03-08T07:20:15;5.00;99.90
19279;DHT22;9773;47.062;15.446;2024-03-08T07:22:45;5.00;99.90
19279;DHT22;9773;47.062;15.446;2024-03-08T07:25:14;5.00;99.90
19279;DHT22;9773;47.062;15.446;2024-03-08T07:27:55;5.10;99.90
19279;DHT22;9773;47.062;15.446;2024-03-08T07:30:22;5.20;99.90
19279;DHT22;9773;47.062;15.446;2024-03-08T07:33:07;5.30;99.90
19279;DHT22;9773;47.062;15.446;2024-03-08T07:35:33;5.60;99.90
19279;DHT22;9773;47.062;15.446;2024-03-08T07:38:06;5.80;99.90
19279;DHT22;9773;47.062;15.446;2024-03-08T07:40:41;5.90;99.90
19279;DHT22;9773;47.062;15.446;2024-03-08T07:43:12;6.10;99.90
19279;DHT22;9773;47.062;15.446;2024-03-08T07:45:38;6.20;99.90
19279;DHT22;9773;47.062;15.446;2024-03-08T07:48:05;6.40;99.90
19279;DHT22;9773;47.062;15.446;2024-03-08T07:50:39;6.40;99.90
19279;DHT22;9773;47.062;15.446;2024-03-08T07:53:05;6.30;99.90
19279;DHT22;9773;47.062;15.446;2024-03-08T07:55:35;6.30;99.90
19279;DHT22;9773;47.062;15.446;2024-03-08T07:58:05;6.20;99.90
19279;DHT22;9773;47.062;15.446;2024-03-08T08:00:31;6.30;99.90
19279;DHT22;9773;47.062;15.446;2024-03-08T08:02:57;6.10;99.90
19279;DHT22;9773;47.062;15.446;2024-03-08T08:05:23;8.50;99.90
19279;DHT22;9773;47.062;15.446;2024-03-08T08:07:49;6.00;99.90
19279;DHT22;9773;47.062;15.446;2024-03-08T08:10:17;6.00;99.90
19279;DHT22;9773;47.062;15.446;2024-03-08T08:12:49;6.10;99.90
19279;DHT22;9773;47.062;15.446;2024-03-08T08:15:15;6.10;99.90
19279;DHT22;9773;47.062;15.446;2024-03-08T08:17:47;6.00;99.90
19279;DHT22;9773;47.062;15.446;2024-03-08T08:20:14;6.10;99.90
19279;DHT22;9773;47.062;15.446;2024-03-08T08:22:44;6.10;99.90
19279;DHT22;9773;47.062;15.446;2024-03-08T08:25:10;6.20;99.90
19279;DHT22;9773;47.062;15.446;2024-03-08T08:27:41;6.10;99.90
19279;DHT22;9773;47.062;15.446;2024-03-08T08:30:11;6.10;99.90
19279;DHT22;9773;47.062;15.446;2024-03-08T08:32:41;6.10;99.90
19279;DHT22;9773;47.062;15.446;2024-03-08T08:35:15;6.20;99.90
19279;DHT22;9773;47.062;15.446;2024-03-08T08:37:44;6.30;99.90
19279;DHT22;9773;47.062;15.446;2024-03-08T08:40:10;6.40;99.90
19279;DHT22;9773;47.062;15.446;2024-03-08T08:42:58;6.40;99.90
19279;DHT22;9773;47.062;15.446;2024-03-08T08:45:28;6.40;99.90
19279;DHT22;9773;47.062;15.446;2024-03-08T08:48:00;6.50;99.90
19279;DHT22;9773;47.062;15.446;2024-03-08T08:50:32;6.60;99.90
19279;DHT22;9773;47.062;15.446;2024-03-08T08:53:07;6.70;99.90
19279;DHT22;9773;47.062;15.446;2024-03-08T08:55:49;6.60;99.90
19279;DHT22;9773;47.062;15.446;2024-03-08T08:58:26;6.80;99.90
19279;DHT22;9773;47.062;15.446;2024-03-08T09:00:54;6.90;99.90
19279;DHT22;9773;47.062;15.446;2024-03-08T09:03:23;7.00;99.90
19279;DHT22;9773;47.062;15.446;2024-03-08T09:05:50;7.10;99.90
19279;DHT22;9773;47.062;15.446;2024-03-08T09:08:24;7.20;99.90
19279;DHT22;9773;47.062;15.446;2024-03-08T09:10:52;7.30;99.90
19279;DHT22;9773;47.062;15.446;2024-03-08T09:13:20;7.30;99.90
19279;DHT22;9773;47.062;15.446;2024-03-08T09:16:06;7.30;99.90
19279;DHT22;9773;47.062;15.446;2024-03-08T09:18:32;7.20;99.90
19279;DHT22;9773;47.062;15.446;2024-03-08T09:20:58;7.30;99.90
19279;DHT22;9773;47.062;15.446;2024-03-08T09:23:25;7.40;99.90
19279;DHT22;9773;47.062;15.446;2024-03-08T09:25:56;7.20;99.90
19279;DHT22;9773;47.062;15.446;2024-03-08T09:28:23;7.30;99.90
19279;DHT22;9773;47.062;15.446;2024-03-08T09:30:49;7.10;99.90
19279;DHT22;9773;47.062;15.446;2024-03-08T09:33:15;7.10;99.90
19279;DHT22;9773;47.062;15.446;2024-03-08T09:35:45;7.00;99.90
19279;DHT22;9773;47.062;15.446;2024-03-08T09:38:12;6.80;99.90
19279;DHT22;9773;47.062;15.446;2024-03-08T09:40:42;6.30;99.90
19279;DHT22;9773;47.062;15.446;2024-03-08T09:43:09;6.20;99.90
19279;DHT22;9773;47.062;15.446;2024-03-08T09:45:37;6.00;99.90
19279;DHT22;9773;47.062;15.446;2024-03-08T09:48:13;6.00;99.90
19279;DHT22;9773;47.062;15.446;2024-03-08T09:50:40;6.00;99.90
19279;DHT22;9773;47.062;15.446;2024-03-08T09:53:11;6.00;99.90
19279;DHT22;9773;47.062;15.446;2024-03-08T09:55:40;6.10;99.90
19279;DHT22;9773;47.062;15.446;2024-03-08T09:58:12;6.20;99.90
19279;DHT22;9773;47.062;15.446;2024-03-08T10:01:02;6.50;99.90
19279;DHT22;9773;47.062;15.446;2024-03-08T10:03:30;6.50;99.90
19279;DHT22;9773;47.062;15.446;2024-03-08T10:05:57;6.60;99.90
19279;DHT22;9773;47.062;15.446;2024-03-08T10:08:30;6.70;99.90
19279;DHT22;9773;47.062;15.446;2024-03-08T10:10:56;6.40;99.90
19279;DHT22;9773;47.062;15.446;2024-03-08T10:13:26;6.80;99.90
19279;DHT22;9773;47.062;15.446;2024-03-08T10:15:54;6.90;99.90
19279;DHT22;9773;47.062;15.446;2024-03-08T10:18:20;7.10;99.90
19279;DHT22;9773;47.062;15.446;2024-03-08T10:21:03;7.20;99.90
19279;DHT22;9773;47.062;15.446;2024-03-08T10:23:33;7.50;99.90
19279;DHT22;9773;47.062;15.446;2024-03-08T10:26:18;7.80;99.90
19279;DHT22;9773;47.062;15.446;2024-03-08T10:28:48;8.20;99.90
19279;DHT22;9773;47.062;15.446;2024-03-08T10:31:15;8.20;99.90
19279;DHT22;9773;47.062;15.446;2024-03-08T10:33:41;8.40;99.90
19279;DHT22;9773;47.062;15.446;2024-03-08T10:36:08;8.40;99.90
19279;DHT22;9773;47.062;15.446;2024-03-08T10:38:37;8.10;99.90
19279;DHT22;9773;47.062;15.446;2024-03-08T10:41:08;8.10;99.90
19279;DHT22;9773;47.062;15.446;2024-03-08T10:47:08;8.40;99.90
19279;DHT22;9773;47.062;15.446;2024-03-08T10:49:51;8.50;99.90
19279;DHT22;9773;47.062;15.446;2024-03-08T10:52:20;8.50;99.90
19279;DHT22;9773;47.062;15.446;2024-03-08T10:54:47;8.50;99.90
19279;DHT22;9773;47.062;15.446;2024-03-08T10:57:17;8.60;99.90
19279;DHT22;9773;47.062;15.446;2024-03-08T10:59:43;8.80;99.90
19279;DHT22;9773;47.062;15.446;2024-03-08T11:02:12;9.00;99.90
19279;DHT22;9773;47.062;15.446;2024-03-08T11:04:38;9.10;99.90
19279;DHT22;9773;47.062;15.446;2024-03-08T11:07:04;9.00;99.90
19279;DHT22;9773;47.062;15.446;2024-03-08T11:09:35;8.70;99.90
19279;DHT22;9773;47.062;15.446;2024-03-08T11:12:27;8.60;99.90
19279;DHT22;9773;47.062;15.446;2024-03-08T11:15:10;8.60;99.90
19279;DHT22;9773;47.062;15.446;2024-03-08T11:20:21;8.60;99.90
19279;DHT22;9773;47.062;15.446;2024-03-08T11:22:53;8.70;99.90
19279;DHT22;9773;47.062;15.446;2024-03-08T11:28:18;8.70;99.90
19279;DHT22;9773;47.062;15.446;2024-03-08T11:33:14;8.70;99.90
19279;DHT22;9773;47.062;15.446;2024-03-08T11:35:42;8.70;99.90
19279;DHT22;9773;47.062;15.446;2024-03-08T11:38:16;8.80;99.90
19279;DHT22;9773;47.062;15.446;2024-03-08T11:40:42;8.90;99.80
19279;DHT22;9773;47.062;15.446;2024-03-08T11:43:08;8.90;99.60
19279;DHT22;9773;47.062;15.446;2024-03-08T11:45:35;8.90;99.70
19279;DHT22;9773;47.062;15.446;2024-03-08T11:48:03;8.90;99.40
19279;DHT22;9773;47.062;15.446;2024-03-08T11:50:30;9.00;99.50
19279;DHT22;9773;47.062;15.446;2024-03-08T11:53:16;9.00;99.80
19279;DHT22;9773;47.062;15.446;2024-03-08T11:55:42;9.00;99.60
19279;DHT22;9773;47.062;15.446;2024-03-08T11:58:08;9.00;98.90
19279;DHT22;9773;47.062;15.446;2024-03-08T12:00:41;8.80;98.80
19279;DHT22;9773;47.062;15.446;2024-03-08T12:03:09;8.80;99.10
19279;DHT22;9773;47.062;15.446;2024-03-08T12:06:00;8.70;98.90
19279;DHT22;9773;47.062;15.446;2024-03-08T12:08:37;8.70;99.20
19279;DHT22;9773;47.062;15.446;2024-03-08T12:11:11;8.90;99.40
19279;DHT22;9773;47.062;15.446;2024-03-08T12:13:38;8.90;99.70
19279;DHT22;9773;47.062;15.446;2024-03-08T12:16:05;8.90;99.00
19279;DHT22;9773;47.062;15.446;2024-03-08T12:18:37;9.00;99.00
19279;DHT22;9773;47.062;15.446;2024-03-08T12:21:10;9.10;98.70
19279;DHT22;9773;47.062;15.446;2024-03-08T12:23:38;9.10;98.80
19279;DHT22;9773;47.062;15.446;2024-03-08T12:26:15;9.00;98.40
19279;DHT22;9773;47.062;15.446;2024-03-08T12:28:42;9.00;98.60
19279;DHT22;9773;47.062;15.446;2024-03-08T12:31:16;9.10;98.60
19279;DHT22;9773;47.062;15.446;2024-03-08T12:33:54;9.00;98.80
19279;DHT22;9773;47.062;15.446;2024-03-08T12:36:24;9.00;98.90
19279;DHT22;9773;47.062;15.446;2024-03-08T12:38:53;9.00;99.40
19279;DHT22;9773;47.062;15.446;2024-03-08T12:41:21;9.10;99.80
19279;DHT22;9773;47.062;15.446;2024-03-08T12:43:47;9.20;99.50
19279;DHT22;9773;47.062;15.446;2024-03-08T12:46:17;9.20;99.70
19279;DHT22;9773;47.062;15.446;2024-03-08T12:48:44;9.40;99.90
19279;DHT22;9773;47.062;15.446;2024-03-08T12:51:13;9.40;99.00
19279;DHT22;9773;47.062;15.446;2024-03-08T12:53:40;9.50;99.50
19279;DHT22;9773;47.062;15.446;2024-03-08T12:56:10;9.50;99.40
19279;DHT22;9773;47.062;15.446;2024-03-08T12:58:36;9.60;98.80
19279;DHT22;9773;47.062;15.446;2024-03-08T13:01:05;9.30;98.70
19279;DHT22;9773;47.062;15.446;2024-03-08T13:03:37;9.20;99.00
19279;DHT22;9773;47.062;15.446;2024-03-08T13:06:04;9.00;98.80
19279;DHT22;9773;47.062;15.446;2024-03-08T13:08:37;9.10;99.10
19279;DHT22;9773;47.062;15.446;2024-03-08T13:11:08;9.10;99.20
19279;DHT22;9773;47.062;15.446;2024-03-08T13:13:36;9.00;99.30
19279;DHT22;9773;47.062;15.446;2024-03-08T13:16:03;9.00;99.90
19279;DHT22;9773;47.062;15.446;2024-03-08T13:18:37;9.00;99.90
19279;DHT22;9773;47.062;15.446;2024-03-08T13:21:03;9.20;99.90
19279;DHT22;9773;47.062;15.446;2024-03-08T13:23:33;9.20;99.40
19279;DHT22;9773;47.062;15.446;2024-03-08T13:26:06;9.10;99.90
19279;DHT22;9773;47.062;15.446;2024-03-08T13:28:33;9.10;99.70
19279;DHT22;9773;47.062;15.446;2024-03-08T13:31:07;9.00;99.90
19279;DHT22;9773;47.062;15.446;2024-03-08T13:33:42;9.00;99.90
19279;DHT22;9773;47.062;15.446;2024-03-08T13:36:16;9.10;99.50
19279;DHT22;9773;47.062;15.446;2024-03-08T13:38:46;9.00;99.10
19279;DHT22;9773;47.062;15.446;2024-03-08T13:41:15;9.00;99.80
19279;DHT22;9773;47.062;15.446;2024-03-08T13:44:04;9.00;99.80
19279;DHT22;9773;47.062;15.446;2024-03-08T13:46:38;9.00;99.90
19279;DHT22;9773;47.062;15.446;2024-03-08T13:49:10;9.00;99.80
19279;DHT22;9773;47.062;15.446;2024-03-08T13:51:38;8.90;99.90
19279;DHT22;9773;47.062;15.446;2024-03-08T13:54:12;9.00;99.80
19279;DHT22;9773;47.062;15.446;2024-03-08T13:56:46;8.90;99.90
19279;DHT22;9773;47.062;15.446;2024-03-08T13:59:13;9.00;99.90
19279;DHT22;9773;47.062;15.446;2024-03-08T14:02:01;9.00;99.90
19279;DHT22;9773;47.062;15.446;2024-03-08T14:04:50;8.90;99.90
19279;DHT22;9773;47.062;15.446;2024-03-08T14:07:18;8.80;99.90
19279;DHT22;9773;47.062;15.446;2024-03-08T14:09:47;8.80;99.90
19279;DHT22;9773;47.062;15.446;2024-03-08T14:12:15;9.00;99.90
19279;DHT22;9773;47.062;15.446;2024-03-08T14:14:54;8.90;99.90
19279;DHT22;9773;47.062;15.446;2024-03-08T14:17:34;8.90;99.90
19279;DHT22;9773;47.062;15.446;2024-03-08T14:20:25;8.90;99.90
19279;DHT22;9773;47.062;15.446;2024-03-08T14:23:12;8.90;99.90
19279;DHT22;9773;47.062;15.446;2024-03-08T14:25:41;9.00;99.90
19279;DHT22;9773;47.062;15.446;2024-03-08T14:28:09;9.10;99.90
19279;DHT22;9773;47.062;15.446;2024-03-08T14:30:39;9.10;99.90
19279;DHT22;9773;47.062;15.446;2024-03-08T14:33:07;9.10;99.90
19279;DHT22;9773;47.062;15.446;2024-03-08T14:36:15;9.10;99.90
19279;DHT22;9773;47.062;15.446;2024-03-08T14:38:45;9.10;99.90
19279;DHT22;9773;47.062;15.446;2024-03-08T14:41:14;9.10;99.90
19279;DHT22;9773;47.062;15.446;2024-03-08T14:43:48;9.10;99.90
19279;DHT22;9773;47.062;15.446;2024-03-08T14:46:27;9.10;99.90
19279;DHT22;9773;47.062;15.446;2024-03-08T14:48:53;9.10;99.90
19279;DHT22;9773;47.062;15.446;2024-03-08T14:51:20;9.10;99.90
19279;DHT22;9773;47.062;15.446;2024-03-08T14:53:48;9.00;99.90
19279;DHT22;9773;47.062;15.446;2024-03-08T14:56:15;9.00;99.90
19279;DHT22;9773;47.062;15.446;2024-03-08T14:58:47;9.00;99.90
19279;DHT22;9773;47.062;15.446;2024-03-08T15:01:15;8.90;99.90
19279;DHT22;9773;47.062;15.446;2024-03-08T15:03:41;9.00;99.90
19279;DHT22;9773;47.062;15.446;2024-03-08T15:06:10;8.90;99.90
19279;DHT22;9773;47.062;15.446;2024-03-08T15:08:38;8.90;99.90
19279;DHT22;9773;47.062;15.446;2024-03-08T15:11:06;8.90;99.90
19279;DHT22;9773;47.062;15.446;2024-03-08T15:13:33;8.90;99.90
19279;DHT22;9773;47.062;15.446;2024-03-08T15:16:08;8.70;99.90
19279;DHT22;9773;47.062;15.446;2024-03-08T15:18:35;8.60;99.90
19279;DHT22;9773;47.062;15.446;2024-03-08T15:21:04;8.50;99.90
19279;DHT22;9773;47.062;15.446;2024-03-08T15:23:34;8.40;99.90
19279;DHT22;9773;47.062;15.446;2024-03-08T15:26:00;8.40;99.90
19279;DHT22;9773;47.062;15.446;2024-03-08T15:28:27;8.50;99.90
19279;DHT22;9773;47.062;15.446;2024-03-08T15:31:02;8.50;99.90
19279;DHT22;9773;47.062;15.446;2024-03-08T15:33:35;8.40;99.90
19279;DHT22;9773;47.062;15.446;2024-03-08T15:36:08;8.40;99.90
19279;DHT22;9773;47.062;15.446;2024-03-08T15:38:35;8.40;99.90
19279;DHT22;9773;47.062;15.446;2024-03-08T15:41:03;8.20;99.90
19279;DHT22;9773;47.062;15.446;2024-03-08T15:43:36;8.20;99.90
19279;DHT22;9773;47.062;15.446;2024-03-08T15:46:07;8.20;99.90
19279;DHT22;9773;47.062;15.446;2024-03-08T15:48:34;8.10;99.90
19279;DHT22;9773;47.062;15.446;2024-03-08T15:51:03;8.00;99.90
19279;DHT22;9773;47.062;15.446;2024-03-08T15:53:35;8.00;99.90
19279;DHT22;9773;47.062;15.446;2024-03-08T15:56:02;8.00;99.90
19279;DHT22;9773;47.062;15.446;2024-03-08T15:58:35;8.00;99.90
19279;DHT22;9773;47.062;15.446;2024-03-08T16:01:04;7.90;99.90
19279;DHT22;9773;47.062;15.446;2024-03-08T16:03:33;7.90;99.90
19279;DHT22;9773;47.062;15.446;2024-03-08T16:05:59;7.80;99.90
19279;DHT22;9773;47.062;15.446;2024-03-08T16:08:25;7.80;99.90
19279;DHT22;9773;47.062;15.446;2024-03-08T16:10:53;7.80;99.90
19279;DHT22;9773;47.062;15.446;2024-03-08T16:13:26;7.80;99.90